createdAt,value
2018-03-24T00:00:18.556Z,78.50
2018-03-24T00:02:46.037Z,78.70
2018-03-24T00:05:13.497Z,78.70
2018-03-24T00:07:40.968Z,79.60
2018-03-24T00:10:08.414Z,78.60
2018-03-24T00:12:35.905Z,78.30
2018-03-24T00:15:03.384Z,78.20
2018-03-24T00:17:30.888Z,78.00
2018-03-24T00:19:58.504Z,78.30
2018-03-24T00:22:26.182Z,78.40
2018-03-24T00:24:53.739Z,78.60
2018-03-24T00:27:21.244Z,78.60
2018-03-24T00:29:48.733Z,78.30
2018-03-24T00:32:17.122Z,78.30
2018-03-24T00:34:44.614Z,77.70
2018-03-24T00:37:12.059Z,78.40
2018-03-24T00:39:39.552Z,78.20
2018-03-24T00:42:07.012Z,78.30
2018-03-24T00:44:34.481Z,78.40
2018-03-24T00:47:02.719Z,78.60
2018-03-24T00:49:30.196Z,78.60
2018-03-24T00:51:57.652Z,78.40
2018-03-24T00:54:25.130Z,78.60
2018-03-24T00:56:53.380Z,78.80
2018-03-24T00:59:20.830Z,78.80
2018-03-24T01:01:48.317Z,78.50
2018-03-24T01:04:16.561Z,78.30
2018-03-24T01:06:44.027Z,78.30
2018-03-24T01:09:11.507Z,78.00
2018-03-24T01:11:39.743Z,77.80
2018-03-24T01:14:07.192Z,77.70
2018-03-24T01:16:34.664Z,77.30
2018-03-24T01:19:02.141Z,77.00
2018-03-24T01:21:29.608Z,77.00
2018-03-24T01:23:57.845Z,77.20
2018-03-24T01:26:25.326Z,77.20
2018-03-24T01:28:52.791Z,77.10
2018-03-24T01:31:21.011Z,77.10
2018-03-24T01:33:48.484Z,77.00
2018-03-24T01:36:15.943Z,77.00
2018-03-24T01:38:43.407Z,76.80
2018-03-24T01:41:10.862Z,76.80
2018-03-24T01:43:38.347Z,76.60
2018-03-24T01:46:05.799Z,76.90
2018-03-24T01:48:34.026Z,77.70
2018-03-24T01:51:01.482Z,77.50
2018-03-24T01:53:40.988Z,77.30
2018-03-24T01:56:09.204Z,77.40
2018-03-24T01:58:36.672Z,77.40
2018-03-24T02:01:04.148Z,77.50
2018-03-24T02:03:31.599Z,77.60
2018-03-24T02:05:59.068Z,77.70
2018-03-24T02:08:27.283Z,77.40
2018-03-24T02:10:54.758Z,77.40
2018-03-24T02:13:22.242Z,77.60
2018-03-24T02:15:49.711Z,78.70
2018-03-24T02:18:17.940Z,78.20
2018-03-24T02:20:45.376Z,78.00
2018-03-24T02:23:12.848Z,78.00
2018-03-24T02:25:40.308Z,77.70
2018-03-24T02:28:07.789Z,77.70
2018-03-24T02:30:35.232Z,77.40
2018-03-24T02:33:02.703Z,77.40
2018-03-24T02:35:30.164Z,77.30
2018-03-24T02:37:57.635Z,77.10
2018-03-24T02:40:25.860Z,77.30
2018-03-24T02:42:53.347Z,77.30
2018-03-24T02:45:20.801Z,77.60
2018-03-24T02:47:48.263Z,78.20
2018-03-24T02:50:15.753Z,78.10
2018-03-24T02:52:43.976Z,78.50
2018-03-24T02:55:11.450Z,78.40
2018-03-24T02:57:38.907Z,78.90
2018-03-24T03:00:06.388Z,79.30
2018-03-24T03:02:34.603Z,79.70
2018-03-24T03:05:02.076Z,79.70
2018-03-24T03:07:29.528Z,79.60
2018-03-24T03:09:57.072Z,79.40
2018-03-24T03:12:24.516Z,79.40
2018-03-24T03:14:51.981Z,79.50
2018-03-24T03:17:19.476Z,79.30
2018-03-24T03:19:46.948Z,79.10
2018-03-24T03:22:15.195Z,79.00
2018-03-24T03:24:42.654Z,78.90
2018-03-24T03:27:10.137Z,78.80
2018-03-24T03:29:37.575Z,78.60
2018-03-24T03:32:07.026Z,79.10
2018-03-24T03:34:34.492Z,79.30
2018-03-24T03:37:01.966Z,79.40
2018-03-24T03:39:29.432Z,79.10
2018-03-24T03:41:56.897Z,78.90
2018-03-24T03:44:24.354Z,79.10
2018-03-24T03:46:51.842Z,79.00
2018-03-24T03:49:20.051Z,79.40
2018-03-24T03:51:47.487Z,79.40
2018-03-24T03:54:14.965Z,79.90
2018-03-24T03:56:42.407Z,79.70
2018-03-24T03:59:09.900Z,79.60
2018-03-24T04:01:37.376Z,79.80
2018-03-24T04:04:04.856Z,80.30
2018-03-24T04:06:33.070Z,80.10
2018-03-24T04:09:00.540Z,80.10
2018-03-24T04:11:27.987Z,80.10
2018-03-24T04:13:55.472Z,80.10
2018-03-24T04:16:22.934Z,80.20
2018-03-24T04:18:50.380Z,80.00
2018-03-24T04:21:18.618Z,80.10
2018-03-24T04:23:46.088Z,80.10
2018-03-24T04:26:13.578Z,80.00
2018-03-24T04:28:41.048Z,80.40
2018-03-24T04:31:09.287Z,79.90
2018-03-24T04:33:36.762Z,79.90
2018-03-24T04:36:04.260Z,80.00
2018-03-24T04:38:31.710Z,80.10
2018-03-24T04:40:59.204Z,79.90
2018-03-24T04:43:26.651Z,79.60
2018-03-24T04:45:54.154Z,79.40
2018-03-24T04:48:21.620Z,79.00
2018-03-24T04:50:49.856Z,79.10
2018-03-24T04:53:17.314Z,79.10
2018-03-24T04:55:44.827Z,79.40
2018-03-24T04:58:12.302Z,79.10
2018-03-24T05:00:39.763Z,79.00
2018-03-24T05:03:07.212Z,78.90
2018-03-24T05:05:34.693Z,79.00
2018-03-24T05:08:02.135Z,79.00
2018-03-24T05:10:29.591Z,79.30
2018-03-24T05:12:57.080Z,80.50
2018-03-24T05:15:24.518Z,80.60
2018-03-24T05:17:51.986Z,80.20
2018-03-24T05:20:19.434Z,79.60
2018-03-24T05:22:46.928Z,79.40
2018-03-24T05:25:15.153Z,78.80
2018-03-24T05:27:42.624Z,78.80
2018-03-24T05:30:10.071Z,78.70
2018-03-24T05:32:37.531Z,78.80
2018-03-24T05:35:04.993Z,78.70
2018-03-24T05:37:32.472Z,79.10
2018-03-24T05:40:00.723Z,79.30
2018-03-24T05:42:28.167Z,79.30
2018-03-24T05:44:55.646Z,79.30
2018-03-24T05:47:23.091Z,79.80
2018-03-24T05:49:50.561Z,79.90
2018-03-24T05:52:18.006Z,79.50
2018-03-24T05:54:45.487Z,79.60
2018-03-24T05:57:12.928Z,79.80
2018-03-24T05:59:40.403Z,80.40
2018-03-24T06:02:08.641Z,81.30
2018-03-24T06:04:36.132Z,81.20
2018-03-24T06:07:04.350Z,81.70
2018-03-24T06:09:31.812Z,81.70
2018-03-24T06:11:59.285Z,81.80
2018-03-24T06:14:26.745Z,81.70
2018-03-24T06:16:54.220Z,81.60
2018-03-24T06:19:21.663Z,81.90
2018-03-24T06:21:49.148Z,82.00
2018-03-24T06:24:17.364Z,81.90
2018-03-24T06:26:44.848Z,81.80
2018-03-24T06:29:12.304Z,81.70
2018-03-24T06:31:43.445Z,81.80
2018-03-24T06:34:10.888Z,81.60
2018-03-24T06:36:39.985Z,81.70
2018-03-24T06:39:07.449Z,81.60
2018-03-24T06:41:34.927Z,81.50
2018-03-24T06:44:02.378Z,81.60
2018-03-24T06:46:29.847Z,81.80
2018-03-24T06:48:58.098Z,81.70
2018-03-24T06:51:25.548Z,81.60
2018-03-24T06:53:53.035Z,81.60
2018-03-24T06:56:20.534Z,81.50
2018-03-24T06:58:47.991Z,81.30
2018-03-24T07:01:15.484Z,81.20
2018-03-24T07:03:42.970Z,80.90
2018-03-24T07:06:11.205Z,80.80
2018-03-24T07:08:38.689Z,80.70
2018-03-24T07:11:06.156Z,80.50
2018-03-24T07:13:33.635Z,80.40
2018-03-24T07:16:01.104Z,80.20
2018-03-24T07:18:28.561Z,80.20
2018-03-24T07:20:56.026Z,80.10
2018-03-24T07:23:23.483Z,80.10
2018-03-24T07:25:50.959Z,80.00
2018-03-24T07:28:18.415Z,80.30
2018-03-24T07:30:45.902Z,80.40
2018-03-24T07:33:13.344Z,80.10
2018-03-24T07:35:40.815Z,79.90
2018-03-24T07:38:08.297Z,79.70
2018-03-24T07:40:35.752Z,80.00
2018-03-24T07:43:03.228Z,79.80
2018-03-24T07:45:30.719Z,79.80
2018-03-24T07:47:58.176Z,79.60
2018-03-24T07:50:25.679Z,78.70
2018-03-24T07:52:53.186Z,78.40
2018-03-24T07:55:20.752Z,78.20
2018-03-24T07:57:48.338Z,77.40
2018-03-24T08:00:15.833Z,77.30
2018-03-24T08:02:43.280Z,77.70
2018-03-24T08:05:10.774Z,76.40
2018-03-24T08:07:38.220Z,76.60
2018-03-24T08:10:05.755Z,76.70
2018-03-24T08:12:33.280Z,76.60
2018-03-24T08:15:01.521Z,76.10
2018-03-24T08:17:28.986Z,76.10
2018-03-24T08:19:56.490Z,75.40
2018-03-24T08:22:23.955Z,75.40
2018-03-24T08:24:51.454Z,75.40
2018-03-24T08:27:18.915Z,74.80
2018-03-24T08:29:46.381Z,75.00
2018-03-24T08:32:14.650Z,73.70
2018-03-24T08:34:42.105Z,74.30
2018-03-24T08:37:09.789Z,74.10
2018-03-24T08:39:38.016Z,71.10
2018-03-24T08:42:05.478Z,71.10
2018-03-24T08:44:32.952Z,70.20
2018-03-24T08:47:00.423Z,70.00
2018-03-24T08:49:28.689Z,70.10
2018-03-24T08:51:56.173Z,70.00
2018-03-24T08:54:23.640Z,69.80
2018-03-24T08:56:51.132Z,67.00
2018-03-24T08:59:18.585Z,66.70
2018-03-24T09:01:46.084Z,67.00
2018-03-24T09:04:14.319Z,65.00
2018-03-24T09:06:41.796Z,65.00
2018-03-24T09:09:09.284Z,63.10
2018-03-24T09:11:36.769Z,61.10
2018-03-24T09:14:04.256Z,61.60
2018-03-24T09:16:31.695Z,61.60
2018-03-24T09:18:59.189Z,61.80
2018-03-24T09:21:26.643Z,60.50
2018-03-24T09:23:54.207Z,59.80
2018-03-24T09:26:22.427Z,57.00
2018-03-24T09:28:49.926Z,57.40
2018-03-24T09:31:17.371Z,57.30
2018-03-24T09:33:44.872Z,55.50
2018-03-24T09:36:13.117Z,55.20
2018-03-24T09:38:40.564Z,55.20
2018-03-24T09:41:08.051Z,53.90
2018-03-24T09:43:36.285Z,52.70
2018-03-24T09:46:03.756Z,52.60
2018-03-24T09:48:31.221Z,52.70
2018-03-24T09:50:58.706Z,50.00
2018-03-24T09:53:26.155Z,50.20
2018-03-24T09:55:53.648Z,48.40
2018-03-24T09:58:21.115Z,48.40
2018-03-24T10:00:48.576Z,49.20
2018-03-24T10:03:16.077Z,49.20
2018-03-24T10:05:43.535Z,48.60
2018-03-24T10:08:11.034Z,48.20
2018-03-24T10:10:38.539Z,47.50
2018-03-24T10:13:06.792Z,48.50
2018-03-24T10:15:34.288Z,47.80
2018-03-24T10:18:01.791Z,48.30
2018-03-24T10:23:59.762Z,45.90
2018-03-24T10:26:27.218Z,46.40
2018-03-24T10:28:54.721Z,45.90
2018-03-24T10:31:22.199Z,46.70
2018-03-24T10:33:56.219Z,46.20
2018-03-24T10:36:23.698Z,46.20
2018-03-24T10:38:51.189Z,45.20
2018-03-24T10:41:18.704Z,46.40
2018-03-24T10:43:46.951Z,45.30
2018-03-24T10:46:15.204Z,45.70
2018-03-24T10:48:43.466Z,44.80
2018-03-24T10:51:10.948Z,44.90
2018-03-24T10:53:38.409Z,44.70
2018-03-24T10:56:06.675Z,42.70
2018-03-24T10:58:34.905Z,41.80
2018-03-24T11:01:03.197Z,41.10
2018-03-24T11:03:30.693Z,40.30
2018-03-24T11:05:58.919Z,40.50
2018-03-24T11:08:26.420Z,40.50
2018-03-24T11:10:54.644Z,40.00
2018-03-24T11:13:22.125Z,40.00
2018-03-24T11:15:49.584Z,39.60
2018-03-24T11:18:17.076Z,39.40
2018-03-24T11:20:45.340Z,38.00
2018-03-24T11:23:13.561Z,37.10
2018-03-24T11:25:40.607Z,37.10
2018-03-24T11:28:08.060Z,38.60
2018-03-24T11:30:35.530Z,37.70
2018-03-24T11:33:03.058Z,37.80
2018-03-24T11:35:30.505Z,39.20
2018-03-24T11:37:58.713Z,38.20
2018-03-24T11:40:26.175Z,38.20
2018-03-24T11:42:53.631Z,37.00
2018-03-24T11:45:21.130Z,37.10
2018-03-24T11:47:49.348Z,36.60
2018-03-24T11:50:16.845Z,36.60
2018-03-24T11:52:44.263Z,36.10
2018-03-24T11:55:11.743Z,36.10
2018-03-24T11:57:39.192Z,35.80
2018-03-24T12:00:10.336Z,36.40
2018-03-24T12:02:37.792Z,35.80
2018-03-24T12:05:05.266Z,35.90
2018-03-24T12:07:32.783Z,36.40
2018-03-24T12:10:00.215Z,35.80
2018-03-24T12:12:27.726Z,37.10
2018-03-24T12:14:55.192Z,36.20
2018-03-24T12:17:24.228Z,35.90
2018-03-24T12:19:52.451Z,35.40
2018-03-24T12:22:19.898Z,35.40
2018-03-24T12:24:47.379Z,34.40
2018-03-24T12:27:14.929Z,35.40
2018-03-24T12:29:42.380Z,35.00
2018-03-24T12:32:09.908Z,35.10
2018-03-24T12:34:37.418Z,35.00
2018-03-24T12:37:05.724Z,35.60
2018-03-24T12:39:33.243Z,35.50
2018-03-24T12:42:00.764Z,35.60
2018-03-24T12:44:28.282Z,35.00
2018-03-24T12:46:56.576Z,34.50
2018-03-24T12:49:24.100Z,34.40
2018-03-24T12:51:52.413Z,32.70
2018-03-24T12:54:19.912Z,32.60
2018-03-24T12:56:47.462Z,32.70
2018-03-24T12:59:14.973Z,33.20
2018-03-24T13:01:42.508Z,32.00
2018-03-24T13:04:10.779Z,31.90
2018-03-24T13:06:38.304Z,31.80
2018-03-24T13:09:05.828Z,31.70
2018-03-24T13:11:33.329Z,32.10
2018-03-24T13:14:00.970Z,32.40
2018-03-24T13:16:28.469Z,32.40
2018-03-24T13:18:55.995Z,32.80
2018-03-24T13:21:23.500Z,33.00
2018-03-24T13:23:51.918Z,32.30
2018-03-24T13:26:19.435Z,32.30
2018-03-24T13:28:47.739Z,32.30
2018-03-24T13:31:15.265Z,32.30
2018-03-24T13:33:43.584Z,31.60
2018-03-24T13:36:11.113Z,31.60
2018-03-24T13:38:38.616Z,31.00
2018-03-24T13:41:06.146Z,31.50
2018-03-24T13:43:33.649Z,31.20
2018-03-24T13:46:01.919Z,32.10
2018-03-24T13:48:29.390Z,32.10
2018-03-24T13:50:56.867Z,32.00
2018-03-24T13:53:25.093Z,30.70
2018-03-24T13:55:52.597Z,30.60
2018-03-24T13:58:20.809Z,30.10
2018-03-24T14:00:48.304Z,30.10
2018-03-24T14:03:15.817Z,30.70
2018-03-24T14:05:43.320Z,30.50
2018-03-24T14:08:10.775Z,30.50
2018-03-24T14:10:38.224Z,29.90
2018-03-24T14:13:07.230Z,29.90
2018-03-24T14:15:34.696Z,29.80
2018-03-24T14:18:02.931Z,31.40
2018-03-24T14:20:30.381Z,31.40
2018-03-24T14:22:57.914Z,31.50
2018-03-24T14:25:25.372Z,31.30
2018-03-24T14:27:52.869Z,31.80
2018-03-24T14:30:20.368Z,31.50
2018-03-24T14:32:48.609Z,32.20
2018-03-24T14:35:16.071Z,32.10
2018-03-24T14:37:44.316Z,31.80
2018-03-24T14:40:11.772Z,31.80
2018-03-24T14:42:39.270Z,31.80
2018-03-24T14:45:06.714Z,32.00
2018-03-24T14:47:34.196Z,32.30
2018-03-24T14:50:02.459Z,33.10
2018-03-24T14:52:29.933Z,33.00
2018-03-24T14:54:57.416Z,33.10
2018-03-24T14:57:24.909Z,33.00
2018-03-24T14:59:52.390Z,33.10
2018-03-24T15:02:20.607Z,33.20
2018-03-24T15:04:48.104Z,33.10
2018-03-24T15:07:15.579Z,33.80
2018-03-24T15:09:43.810Z,33.40
2018-03-24T15:12:11.331Z,33.40
2018-03-24T15:14:38.811Z,33.40
2018-03-24T15:17:06.280Z,33.50
2018-03-24T15:19:33.769Z,33.60
2018-03-24T15:22:01.257Z,33.60
2018-03-24T15:24:28.769Z,34.10
2018-03-24T15:26:56.248Z,34.80
2018-03-24T15:29:36.316Z,35.20
2018-03-24T15:35:22.102Z,35.50
2018-03-24T15:37:50.322Z,35.60
2018-03-24T15:40:17.819Z,35.60
2018-03-24T15:42:45.274Z,35.80
2018-03-24T15:45:12.726Z,36.30
2018-03-24T15:47:40.230Z,36.60
2018-03-24T15:50:07.691Z,36.90
2018-03-24T15:52:35.195Z,37.10
2018-03-24T15:55:02.655Z,37.20
2018-03-24T15:57:30.142Z,37.10
2018-03-24T15:59:58.418Z,37.70
2018-03-24T16:02:26.655Z,38.00
2018-03-24T16:04:54.169Z,37.30
2018-03-24T16:07:21.662Z,37.30
2018-03-24T16:09:49.174Z,38.20
2018-03-24T16:12:16.656Z,37.80
2018-03-24T16:14:44.099Z,37.30
2018-03-24T16:17:11.680Z,37.20
2018-03-24T16:19:39.180Z,37.50
2018-03-24T16:22:07.416Z,37.80
2018-03-24T16:24:34.945Z,37.70
2018-03-24T16:27:02.466Z,38.00
2018-03-24T16:29:30.780Z,38.50
2018-03-24T16:31:58.300Z,38.50
2018-03-24T16:34:26.615Z,39.00
2018-03-24T16:36:54.158Z,39.00
2018-03-24T16:39:21.740Z,38.80
2018-03-24T16:41:49.246Z,38.90
2018-03-24T16:44:16.786Z,39.20
2018-03-24T16:46:44.328Z,40.00
2018-03-24T16:49:11.866Z,39.00
2018-03-24T16:51:39.381Z,38.90
2018-03-24T16:54:07.610Z,39.50
2018-03-24T16:56:35.081Z,39.40
2018-03-24T16:59:02.549Z,39.40
2018-03-24T17:01:30.037Z,39.40
2018-03-24T17:03:58.293Z,39.20
2018-03-24T17:06:25.771Z,39.20
2018-03-24T17:08:54.065Z,39.80
2018-03-24T17:11:21.527Z,39.70
2018-03-24T17:13:49.021Z,40.10
2018-03-24T17:16:16.531Z,40.30
2018-03-24T17:18:43.988Z,40.60
2018-03-24T17:21:11.704Z,40.30
2018-03-24T17:23:39.164Z,40.30
2018-03-24T17:26:06.662Z,40.30
2018-03-24T17:28:34.124Z,40.20
2018-03-24T17:31:01.647Z,40.60
2018-03-24T17:33:29.095Z,41.00
2018-03-24T17:35:56.601Z,42.00
2018-03-24T17:38:24.056Z,41.80
2018-03-24T17:40:51.563Z,42.10
2018-03-24T17:43:19.019Z,42.30
2018-03-24T17:45:46.487Z,42.60
2018-03-24T17:48:14.757Z,43.00
2018-03-24T17:50:42.217Z,43.00
2018-03-24T17:53:10.458Z,43.80
2018-03-24T17:55:37.937Z,43.70
2018-03-24T17:58:05.430Z,44.10
2018-03-24T18:00:32.901Z,44.40
2018-03-24T18:03:00.396Z,44.40
2018-03-24T18:05:27.865Z,44.50
2018-03-24T18:07:55.469Z,44.60
2018-03-24T18:10:22.957Z,44.90
2018-03-24T18:12:50.448Z,44.80
2018-03-24T18:15:18.008Z,45.10
2018-03-24T18:17:46.265Z,45.40
2018-03-24T18:20:13.768Z,45.20
2018-03-24T18:22:41.281Z,45.50
2018-03-24T18:25:08.757Z,45.50
2018-03-24T18:27:36.975Z,46.00
2018-03-24T18:30:04.481Z,45.70
2018-03-24T18:32:31.964Z,45.70
2018-03-24T18:35:00.237Z,46.20
2018-03-24T18:37:27.677Z,46.10
2018-03-24T18:39:55.945Z,46.40
2018-03-24T18:42:23.397Z,46.30
2018-03-24T18:44:50.905Z,46.60
2018-03-24T18:47:18.433Z,46.60
2018-03-24T18:49:46.691Z,47.00
2018-03-24T18:52:14.177Z,47.00
2018-03-24T18:54:41.668Z,47.50
2018-03-24T18:57:09.161Z,47.40
2018-03-24T18:59:37.412Z,48.80
2018-03-24T19:02:04.901Z,47.90
2018-03-24T19:04:33.166Z,48.30
2018-03-24T19:07:00.675Z,48.30
2018-03-24T19:09:28.146Z,48.40
2018-03-24T19:11:55.645Z,48.70
2018-03-24T19:14:23.115Z,48.80
2018-03-24T19:16:51.372Z,48.80
2018-03-24T19:19:18.834Z,48.80
2018-03-24T19:21:47.093Z,49.10
2018-03-24T19:24:14.589Z,49.10
2018-03-24T19:26:42.076Z,48.90
2018-03-24T19:29:09.522Z,48.90
2018-03-24T19:31:37.027Z,48.70
2018-03-24T19:34:04.495Z,48.80
2018-03-24T19:36:32.777Z,49.00
2018-03-24T19:39:01.012Z,48.90
2018-03-24T19:41:28.568Z,48.90
2018-03-24T19:43:56.076Z,49.00
2018-03-24T19:46:23.629Z,48.90
2018-03-24T19:48:51.936Z,49.30
2018-03-24T19:51:19.437Z,49.30
2018-03-24T19:53:47.764Z,50.20
2018-03-24T19:56:15.268Z,49.70
2018-03-24T19:58:43.604Z,50.40
2018-03-24T20:01:11.132Z,50.30
2018-03-24T20:03:38.691Z,50.40
2018-03-24T20:06:06.946Z,51.90
2018-03-24T20:08:35.237Z,52.10
2018-03-24T20:11:03.509Z,51.70
2018-03-24T20:13:31.883Z,52.00
2018-03-24T20:16:00.164Z,52.30
2018-03-24T20:18:28.545Z,52.80
2018-03-24T20:20:56.901Z,53.10
2018-03-24T20:23:24.400Z,53.10
2018-03-24T20:25:51.929Z,52.80
2018-03-24T20:28:20.260Z,53.00
2018-03-24T20:30:47.844Z,52.90
2018-03-24T20:33:16.906Z,53.10
2018-03-24T20:35:44.437Z,53.00
2018-03-24T20:38:11.936Z,53.30
2018-03-24T20:40:39.502Z,53.40
2018-03-24T20:43:07.027Z,53.30
2018-03-24T20:45:34.570Z,53.40
2018-03-24T20:48:02.116Z,53.70
2018-03-24T20:50:29.630Z,53.70
2018-03-24T20:52:57.199Z,53.60
2018-03-24T20:55:24.795Z,53.80
2018-03-24T20:57:52.355Z,53.70
2018-03-24T21:00:19.880Z,53.60
2018-03-24T21:02:47.442Z,53.10
2018-03-24T21:05:14.981Z,52.40
2018-03-24T21:07:42.582Z,52.10
2018-03-24T21:10:10.095Z,52.10
2018-03-24T21:12:37.658Z,52.20
2018-03-24T21:15:05.167Z,52.20
2018-03-24T21:17:32.738Z,52.40
2018-03-24T21:20:00.245Z,52.90
2018-03-24T21:22:27.768Z,53.20
2018-03-24T21:24:55.339Z,53.20
2018-03-24T21:27:22.838Z,53.30
2018-03-24T21:29:51.194Z,53.40
2018-03-24T21:32:18.722Z,53.50
2018-03-24T21:34:46.248Z,53.60
2018-03-24T21:37:13.779Z,53.80
2018-03-24T21:39:42.020Z,54.00
2018-03-24T21:42:09.528Z,54.00
2018-03-24T21:44:37.800Z,54.20
2018-03-24T21:47:06.092Z,54.50
2018-03-24T21:49:33.580Z,54.50
2018-03-24T21:52:01.073Z,54.50
2018-03-24T21:54:28.590Z,54.80
2018-03-24T21:56:56.068Z,54.80
2018-03-24T21:59:23.561Z,54.70
2018-03-24T22:01:51.790Z,55.50
2018-03-24T22:04:19.241Z,55.50
2018-03-24T22:06:46.734Z,55.90
2018-03-24T22:09:14.193Z,55.50
2018-03-24T22:11:42.439Z,55.80
2018-03-24T22:14:09.912Z,55.80
2018-03-24T22:16:37.392Z,55.70
2018-03-24T22:19:04.860Z,55.90
2018-03-24T22:21:32.353Z,56.00
2018-03-24T22:23:59.816Z,56.00
2018-03-24T22:26:27.308Z,56.10
2018-03-24T22:28:55.534Z,56.30
2018-03-24T22:31:23.057Z,56.20
2018-03-24T22:33:50.542Z,56.40
2018-03-24T22:36:18.046Z,56.50
2018-03-24T22:38:45.533Z,56.70
2018-03-24T22:41:13.048Z,56.70
2018-03-24T22:43:40.559Z,56.90
2018-03-24T22:46:08.069Z,57.00
2018-03-24T22:48:35.564Z,57.20
2018-03-24T22:51:03.029Z,57.00
2018-03-24T22:53:30.559Z,57.00
2018-03-24T22:55:58.797Z,57.80
2018-03-24T22:58:26.257Z,57.50
2018-03-24T23:00:53.750Z,57.80
2018-03-24T23:03:22.004Z,58.60
2018-03-24T23:05:49.481Z,58.60
2018-03-24T23:08:17.763Z,59.40
2018-03-24T23:10:45.972Z,59.70
2018-03-24T23:13:13.447Z,59.70
2018-03-24T23:15:40.903Z,59.40
2018-03-24T23:18:08.385Z,59.60
2018-03-24T23:20:36.609Z,59.50
2018-03-24T23:23:04.071Z,59.40
2018-03-24T23:25:31.559Z,59.30
2018-03-24T23:27:59.006Z,59.30
2018-03-24T23:30:26.492Z,59.40
2018-03-24T23:32:54.729Z,59.70
2018-03-24T23:35:22.233Z,59.60
2018-03-24T23:37:49.690Z,59.60
2018-03-24T23:40:17.937Z,59.70
2018-03-24T23:42:45.375Z,59.70
2018-03-24T23:45:12.871Z,59.70
2018-03-24T23:47:41.104Z,60.10
2018-03-24T23:50:08.602Z,60.00
2018-03-24T23:52:36.821Z,60.30
2018-03-24T23:55:04.312Z,60.20
2018-03-24T23:57:31.768Z,60.20
2018-03-24T23:59:59.266Z,60.10
